sensor_id;sensor_type;location;lat;lon;timestamp;temperature;humidity
38456;DHT22;24237;50.106;20.014;2022-12-29T00:00:07;7.70;99.60
38456;DHT22;24237;50.106;20.014;2022-12-29T00:02:33;7.60;99.80
38456;DHT22;24237;50.106;20.014;2022-12-29T00:04:59;7.50;99.80
38456;DHT22;24237;50.106;20.014;2022-12-29T00:07:24;7.40;99.90
38456;DHT22;24237;50.106;20.014;2022-12-29T00:09:50;7.20;99.90
38456;DHT22;24237;50.106;20.014;2022-12-29T00:12:15;6.90;99.90
38456;DHT22;24237;50.106;20.014;2022-12-29T00:14:41;6.80;99.90
38456;DHT22;24237;50.106;20.014;2022-12-29T00:17:25;6.90;99.90
38456;DHT22;24237;50.106;20.014;2022-12-29T00:19:50;6.70;99.90
38456;DHT22;24237;50.106;20.014;2022-12-29T00:22:35;6.70;99.90
38456;DHT22;24237;50.106;20.014;2022-12-29T00:25:19;6.80;99.90
38456;DHT22;24237;50.106;20.014;2022-12-29T00:28:04;7.00;99.90
38456;DHT22;24237;50.106;20.014;2022-12-29T00:30:48;7.10;99.90
38456;DHT22;24237;50.106;20.014;2022-12-29T00:33:33;7.10;99.90
38456;DHT22;24237;50.106;20.014;2022-12-29T00:38:57;6.70;99.90
38456;DHT22;24237;50.106;20.014;2022-12-29T00:41:42;6.70;99.90
38456;DHT22;24237;50.106;20.014;2022-12-29T00:44:26;6.70;99.90
38456;DHT22;24237;50.106;20.014;2022-12-29T00:46:52;6.80;99.90
38456;DHT22;24237;50.106;20.014;2022-12-29T00:49:18;6.70;99.90
38456;DHT22;24237;50.106;20.014;2022-12-29T00:51:59;6.60;99.90
38456;DHT22;24237;50.106;20.014;2022-12-29T00:54:25;6.60;99.90
38456;DHT22;24237;50.106;20.014;2022-12-29T00:56:51;6.80;99.90
38456;DHT22;24237;50.106;20.014;2022-12-29T00:59:18;7.00;99.90
38456;DHT22;24237;50.106;20.014;2022-12-29T01:01:45;6.90;99.90
38456;DHT22;24237;50.106;20.014;2022-12-29T01:04:11;6.90;99.90
38456;DHT22;24237;50.106;20.014;2022-12-29T01:06:39;6.90;99.90
38456;DHT22;24237;50.106;20.014;2022-12-29T01:09:05;7.00;99.90
38456;DHT22;24237;50.106;20.014;2022-12-29T01:11:49;7.10;99.90
38456;DHT22;24237;50.106;20.014;2022-12-29T01:14:16;7.00;99.90
38456;DHT22;24237;50.106;20.014;2022-12-29T01:16:42;7.00;99.90
38456;DHT22;24237;50.106;20.014;2022-12-29T01:19:07;6.90;99.90
38456;DHT22;24237;50.106;20.014;2022-12-29T01:21:33;7.00;99.90
38456;DHT22;24237;50.106;20.014;2022-12-29T01:23:59;6.90;99.90
38456;DHT22;24237;50.106;20.014;2022-12-29T01:26:24;6.90;99.90
38456;DHT22;24237;50.106;20.014;2022-12-29T01:28:50;6.90;99.90
38456;DHT22;24237;50.106;20.014;2022-12-29T01:31:16;6.90;99.90
38456;DHT22;24237;50.106;20.014;2022-12-29T01:33:42;6.90;99.90
38456;DHT22;24237;50.106;20.014;2022-12-29T01:36:11;6.80;99.90
38456;DHT22;24237;50.106;20.014;2022-12-29T01:38:38;6.80;99.90
38456;DHT22;24237;50.106;20.014;2022-12-29T01:41:05;6.70;99.90
38456;DHT22;24237;50.106;20.014;2022-12-29T01:46:36;6.90;99.90
38456;DHT22;24237;50.106;20.014;2022-12-29T01:49:22;6.90;99.90
38456;DHT22;24237;50.106;20.014;2022-12-29T01:51:56;7.00;99.90
38456;DHT22;24237;50.106;20.014;2022-12-29T01:54:28;7.00;99.90
38456;DHT22;24237;50.106;20.014;2022-12-29T01:56:59;7.00;99.90
38456;DHT22;24237;50.106;20.014;2022-12-29T01:59:41;7.10;99.90
38456;DHT22;24237;50.106;20.014;2022-12-29T02:02:09;7.20;99.90
38456;DHT22;24237;50.106;20.014;2022-12-29T02:04:35;7.30;99.90
38456;DHT22;24237;50.106;20.014;2022-12-29T02:07:10;7.10;99.90
38456;DHT22;24237;50.106;20.014;2022-12-29T02:09:37;7.60;99.90
38456;DHT22;24237;50.106;20.014;2022-12-29T02:12:02;7.30;99.90
38456;DHT22;24237;50.106;20.014;2022-12-29T02:14:29;7.30;99.90
38456;DHT22;24237;50.106;20.014;2022-12-29T02:22:35;7.30;99.90
38456;DHT22;24237;50.106;20.014;2022-12-29T02:25:34;7.40;99.90
38456;DHT22;24237;50.106;20.014;2022-12-29T02:36:27;7.50;99.90
38456;DHT22;24237;50.106;20.014;2022-12-29T02:39:02;7.40;99.90
38456;DHT22;24237;50.106;20.014;2022-12-29T02:44:34;7.50;99.90
38456;DHT22;24237;50.106;20.014;2022-12-29T02:49:59;7.40;99.90
38456;DHT22;24237;50.106;20.014;2022-12-29T02:52:31;7.30;99.90
38456;DHT22;24237;50.106;20.014;2022-12-29T02:54:59;7.30;99.90
38456;DHT22;24237;50.106;20.014;2022-12-29T03:03:04;7.30;99.90
38456;DHT22;24237;50.106;20.014;2022-12-29T03:11:33;7.40;99.90
38456;DHT22;24237;50.106;20.014;2022-12-29T03:14:32;7.40;99.90
38456;DHT22;24237;50.106;20.014;2022-12-29T03:17:26;7.40;99.90
38456;DHT22;24237;50.106;20.014;2022-12-29T03:20:01;7.30;99.90
38456;DHT22;24237;50.106;20.014;2022-12-29T03:22:30;7.30;99.90
38456;DHT22;24237;50.106;20.014;2022-12-29T03:25:05;7.40;99.90
38456;DHT22;24237;50.106;20.014;2022-12-29T03:27:45;7.20;99.90
38456;DHT22;24237;50.106;20.014;2022-12-29T03:30:13;7.00;99.90
38456;DHT22;24237;50.106;20.014;2022-12-29T03:32:46;6.90;99.90
38456;DHT22;24237;50.106;20.014;2022-12-29T03:35:15;6.80;99.90
38456;DHT22;24237;50.106;20.014;2022-12-29T03:37:49;6.80;99.90
38456;DHT22;24237;50.106;20.014;2022-12-29T03:40:17;6.70;99.90
38456;DHT22;24237;50.106;20.014;2022-12-29T03:42:44;6.60;99.90
38456;DHT22;24237;50.106;20.014;2022-12-29T03:45:10;6.50;99.90
38456;DHT22;24237;50.106;20.014;2022-12-29T03:47:36;6.40;99.90
38456;DHT22;24237;50.106;20.014;2022-12-29T03:50:02;6.50;99.90
38456;DHT22;24237;50.106;20.014;2022-12-29T03:52:27;6.80;99.90
38456;DHT22;24237;50.106;20.014;2022-12-29T03:54:53;6.90;99.90
38456;DHT22;24237;50.106;20.014;2022-12-29T03:57:18;6.70;99.90
38456;DHT22;24237;50.106;20.014;2022-12-29T03:59:44;6.50;99.90
38456;DHT22;24237;50.106;20.014;2022-12-29T04:02:09;6.40;99.90
38456;DHT22;24237;50.106;20.014;2022-12-29T04:04:35;6.40;99.90
38456;DHT22;24237;50.106;20.014;2022-12-29T04:07:01;6.40;99.90
38456;DHT22;24237;50.106;20.014;2022-12-29T04:09:26;6.40;99.90
38456;DHT22;24237;50.106;20.014;2022-12-29T04:11:52;6.60;99.90
38456;DHT22;24237;50.106;20.014;2022-12-29T04:14:17;6.60;99.90
38456;DHT22;24237;50.106;20.014;2022-12-29T04:16:43;6.80;99.90
38456;DHT22;24237;50.106;20.014;2022-12-29T04:19:09;6.80;99.90
38456;DHT22;24237;50.106;20.014;2022-12-29T04:21:34;7.00;99.90
38456;DHT22;24237;50.106;20.014;2022-12-29T04:24:00;7.20;99.90
38456;DHT22;24237;50.106;20.014;2022-12-29T04:26:25;7.50;99.90
38456;DHT22;24237;50.106;20.014;2022-12-29T04:28:51;7.50;99.90
38456;DHT22;24237;50.106;20.014;2022-12-29T04:31:17;7.60;99.90
38456;DHT22;24237;50.106;20.014;2022-12-29T04:33:42;7.40;99.90
38456;DHT22;24237;50.106;20.014;2022-12-29T04:36:08;7.30;99.90
38456;DHT22;24237;50.106;20.014;2022-12-29T04:38:34;7.40;99.90
38456;DHT22;24237;50.106;20.014;2022-12-29T04:41:00;7.30;99.90
38456;DHT22;24237;50.106;20.014;2022-12-29T04:43:26;7.40;99.90
38456;DHT22;24237;50.106;20.014;2022-12-29T04:45:52;7.40;99.90
38456;DHT22;24237;50.106;20.014;2022-12-29T04:48:17;7.60;99.90
38456;DHT22;24237;50.106;20.014;2022-12-29T04:50:43;7.50;99.80
38456;DHT22;24237;50.106;20.014;2022-12-29T04:53:09;7.30;99.90
38456;DHT22;24237;50.106;20.014;2022-12-29T04:55:35;7.10;99.90
38456;DHT22;24237;50.106;20.014;2022-12-29T04:58:00;7.10;99.90
38456;DHT22;24237;50.106;20.014;2022-12-29T05:00:26;7.10;99.90
38456;DHT22;24237;50.106;20.014;2022-12-29T05:02:52;7.00;99.90
38456;DHT22;24237;50.106;20.014;2022-12-29T05:05:18;6.90;99.90
38456;DHT22;24237;50.106;20.014;2022-12-29T05:07:43;6.90;99.90
38456;DHT22;24237;50.106;20.014;2022-12-29T05:10:10;6.80;99.90
38456;DHT22;24237;50.106;20.014;2022-12-29T05:12:37;6.80;99.90
38456;DHT22;24237;50.106;20.014;2022-12-29T05:15:04;6.80;99.90
38456;DHT22;24237;50.106;20.014;2022-12-29T05:17:30;6.90;99.90
38456;DHT22;24237;50.106;20.014;2022-12-29T05:19:56;6.80;99.90
38456;DHT22;24237;50.106;20.014;2022-12-29T05:22:22;6.70;99.90
38456;DHT22;24237;50.106;20.014;2022-12-29T05:24:47;6.70;99.90
38456;DHT22;24237;50.106;20.014;2022-12-29T05:27:13;6.70;99.90
38456;DHT22;24237;50.106;20.014;2022-12-29T05:29:39;6.50;99.90
38456;DHT22;24237;50.106;20.014;2022-12-29T05:32:04;6.20;99.90
38456;DHT22;24237;50.106;20.014;2022-12-29T05:34:30;6.10;99.90
38456;DHT22;24237;50.106;20.014;2022-12-29T05:36:55;5.90;99.90
38456;DHT22;24237;50.106;20.014;2022-12-29T05:39:21;5.90;99.90
38456;DHT22;24237;50.106;20.014;2022-12-29T05:41:47;5.80;99.90
38456;DHT22;24237;50.106;20.014;2022-12-29T05:44:12;6.00;99.90
38456;DHT22;24237;50.106;20.014;2022-12-29T05:46:38;6.30;99.90
38456;DHT22;24237;50.106;20.014;2022-12-29T05:49:04;6.20;99.90
38456;DHT22;24237;50.106;20.014;2022-12-29T05:51:30;6.10;99.90
38456;DHT22;24237;50.106;20.014;2022-12-29T05:53:55;6.30;99.90
38456;DHT22;24237;50.106;20.014;2022-12-29T05:56:21;6.30;99.90
38456;DHT22;24237;50.106;20.014;2022-12-29T05:58:47;6.40;99.90
38456;DHT22;24237;50.106;20.014;2022-12-29T06:01:12;6.40;99.90
38456;DHT22;24237;50.106;20.014;2022-12-29T06:03:38;6.60;99.90
38456;DHT22;24237;50.106;20.014;2022-12-29T06:06:04;6.70;99.90
38456;DHT22;24237;50.106;20.014;2022-12-29T06:08:29;6.60;99.90
38456;DHT22;24237;50.106;20.014;2022-12-29T06:10:55;6.80;99.90
38456;DHT22;24237;50.106;20.014;2022-12-29T06:13:21;6.80;99.90
38456;DHT22;24237;50.106;20.014;2022-12-29T06:15:48;6.70;99.90
38456;DHT22;24237;50.106;20.014;2022-12-29T06:18:14;6.80;99.90
38456;DHT22;24237;50.106;20.014;2022-12-29T06:20:40;7.00;99.90
38456;DHT22;24237;50.106;20.014;2022-12-29T06:23:05;7.20;99.90
38456;DHT22;24237;50.106;20.014;2022-12-29T06:25:31;7.30;99.90
38456;DHT22;24237;50.106;20.014;2022-12-29T06:27:57;7.30;99.90
38456;DHT22;24237;50.106;20.014;2022-12-29T06:30:23;7.30;99.90
38456;DHT22;24237;50.106;20.014;2022-12-29T06:32:49;7.60;99.90
38456;DHT22;24237;50.106;20.014;2022-12-29T06:35:15;7.40;99.90
38456;DHT22;24237;50.106;20.014;2022-12-29T06:37:40;7.40;99.90
38456;DHT22;24237;50.106;20.014;2022-12-29T06:40:06;7.40;99.90
38456;DHT22;24237;50.106;20.014;2022-12-29T06:42:32;7.40;99.90
38456;DHT22;24237;50.106;20.014;2022-12-29T06:44:58;7.40;99.90
38456;DHT22;24237;50.106;20.014;2022-12-29T06:47:25;7.30;99.90
38456;DHT22;24237;50.106;20.014;2022-12-29T06:49:51;7.40;99.90
38456;DHT22;24237;50.106;20.014;2022-12-29T06:52:17;7.40;99.90
38456;DHT22;24237;50.106;20.014;2022-12-29T06:54:42;7.30;99.90
38456;DHT22;24237;50.106;20.014;2022-12-29T06:57:08;7.00;99.90
38456;DHT22;24237;50.106;20.014;2022-12-29T06:59:33;7.00;99.90
38456;DHT22;24237;50.106;20.014;2022-12-29T07:01:59;7.10;99.90
38456;DHT22;24237;50.106;20.014;2022-12-29T07:04:24;7.20;99.90
38456;DHT22;24237;50.106;20.014;2022-12-29T07:06:50;7.10;99.90
38456;DHT22;24237;50.106;20.014;2022-12-29T07:09:16;7.20;99.90
38456;DHT22;24237;50.106;20.014;2022-12-29T07:11:41;7.20;99.90
38456;DHT22;24237;50.106;20.014;2022-12-29T07:14:07;7.20;99.90
38456;DHT22;24237;50.106;20.014;2022-12-29T07:16:32;7.20;99.90
38456;DHT22;24237;50.106;20.014;2022-12-29T07:18:59;7.20;99.90
38456;DHT22;24237;50.106;20.014;2022-12-29T07:21:25;7.30;99.90
38456;DHT22;24237;50.106;20.014;2022-12-29T07:23:51;7.20;99.90
38456;DHT22;24237;50.106;20.014;2022-12-29T07:26:19;7.30;99.90
38456;DHT22;24237;50.106;20.014;2022-12-29T07:28:45;7.20;99.90
38456;DHT22;24237;50.106;20.014;2022-12-29T07:31:21;7.20;99.90
38456;DHT22;24237;50.106;20.014;2022-12-29T07:33:47;7.10;99.90
38456;DHT22;24237;50.106;20.014;2022-12-29T07:36:14;7.30;99.90
38456;DHT22;24237;50.106;20.014;2022-12-29T07:38:41;7.50;99.90
38456;DHT22;24237;50.106;20.014;2022-12-29T07:41:07;7.60;99.90
38456;DHT22;24237;50.106;20.014;2022-12-29T07:43:33;7.80;99.90
38456;DHT22;24237;50.106;20.014;2022-12-29T07:45:59;8.00;99.90
38456;DHT22;24237;50.106;20.014;2022-12-29T07:48:25;8.00;99.90
38456;DHT22;24237;50.106;20.014;2022-12-29T07:50:52;8.10;99.90
38456;DHT22;24237;50.106;20.014;2022-12-29T07:53:18;8.20;99.90
38456;DHT22;24237;50.106;20.014;2022-12-29T07:55:43;8.40;99.90
38456;DHT22;24237;50.106;20.014;2022-12-29T07:58:09;8.30;99.90
38456;DHT22;24237;50.106;20.014;2022-12-29T08:00:34;8.40;99.80
38456;DHT22;24237;50.106;20.014;2022-12-29T08:03:03;8.40;99.90
38456;DHT22;24237;50.106;20.014;2022-12-29T08:05:30;8.50;99.60
38456;DHT22;24237;50.106;20.014;2022-12-29T08:07:56;8.60;99.60
38456;DHT22;24237;50.106;20.014;2022-12-29T08:10:22;8.70;99.70
38456;DHT22;24237;50.106;20.014;2022-12-29T08:12:48;8.60;99.80
38456;DHT22;24237;50.106;20.014;2022-12-29T08:15:16;8.50;99.90
38456;DHT22;24237;50.106;20.014;2022-12-29T08:17:42;8.70;99.70
38456;DHT22;24237;50.106;20.014;2022-12-29T08:20:10;8.70;99.50
38456;DHT22;24237;50.106;20.014;2022-12-29T08:22:36;9.00;99.30
38456;DHT22;24237;50.106;20.014;2022-12-29T08:25:02;9.20;99.20
38456;DHT22;24237;50.106;20.014;2022-12-29T08:27:28;9.10;99.10
38456;DHT22;24237;50.106;20.014;2022-12-29T08:29:53;9.10;99.10
38456;DHT22;24237;50.106;20.014;2022-12-29T08:32:19;9.10;99.20
38456;DHT22;24237;50.106;20.014;2022-12-29T08:34:45;9.30;98.90
38456;DHT22;24237;50.106;20.014;2022-12-29T08:37:11;9.40;98.50
38456;DHT22;24237;50.106;20.014;2022-12-29T08:39:36;9.60;98.30
38456;DHT22;24237;50.106;20.014;2022-12-29T08:42:02;9.80;98.00
38456;DHT22;24237;50.106;20.014;2022-12-29T08:44:28;9.90;97.80
38456;DHT22;24237;50.106;20.014;2022-12-29T08:46:56;9.70;98.50
38456;DHT22;24237;50.106;20.014;2022-12-29T08:49:22;9.70;98.40
38456;DHT22;24237;50.106;20.014;2022-12-29T08:51:47;9.60;98.60
38456;DHT22;24237;50.106;20.014;2022-12-29T08:54:13;9.80;98.50
38456;DHT22;24237;50.106;20.014;2022-12-29T08:56:38;9.80;98.50
38456;DHT22;24237;50.106;20.014;2022-12-29T08:59:04;9.90;98.20
38456;DHT22;24237;50.106;20.014;2022-12-29T09:01:29;9.80;98.60
38456;DHT22;24237;50.106;20.014;2022-12-29T09:03:55;9.70;98.90
38456;DHT22;24237;50.106;20.014;2022-12-29T09:06:21;9.60;98.80
38456;DHT22;24237;50.106;20.014;2022-12-29T09:08:47;9.80;98.50
38456;DHT22;24237;50.106;20.014;2022-12-29T09:11:21;9.80;98.20
38456;DHT22;24237;50.106;20.014;2022-12-29T09:13:47;9.70;98.50
38456;DHT22;24237;50.106;20.014;2022-12-29T09:16:13;9.60;98.50
38456;DHT22;24237;50.106;20.014;2022-12-29T09:18:39;9.80;98.10
38456;DHT22;24237;50.106;20.014;2022-12-29T09:21:06;9.70;98.30
38456;DHT22;24237;50.106;20.014;2022-12-29T09:23:32;9.80;98.10
38456;DHT22;24237;50.106;20.014;2022-12-29T09:25:58;9.90;97.90
38456;DHT22;24237;50.106;20.014;2022-12-29T09:28:24;9.80;98.10
38456;DHT22;24237;50.106;20.014;2022-12-29T09:30:50;10.00;97.90
38456;DHT22;24237;50.106;20.014;2022-12-29T09:33:17;9.90;97.90
38456;DHT22;24237;50.106;20.014;2022-12-29T09:35:44;10.00;97.80
38456;DHT22;24237;50.106;20.014;2022-12-29T09:38:09;10.10;97.80
38456;DHT22;24237;50.106;20.014;2022-12-29T09:40:35;10.30;97.60
38456;DHT22;24237;50.106;20.014;2022-12-29T09:43:25;10.40;97.40
38456;DHT22;24237;50.106;20.014;2022-12-29T09:48:51;10.70;97.10
38456;DHT22;24237;50.106;20.014;2022-12-29T09:51:24;10.70;97.10
38456;DHT22;24237;50.106;20.014;2022-12-29T09:53:57;10.70;97.30
38456;DHT22;24237;50.106;20.014;2022-12-29T09:56:25;10.60;97.20
38456;DHT22;24237;50.106;20.014;2022-12-29T09:58:59;10.60;97.10
38456;DHT22;24237;50.106;20.014;2022-12-29T10:04:04;11.00;97.00
38456;DHT22;24237;50.106;20.014;2022-12-29T10:06:46;10.90;96.90
38456;DHT22;24237;50.106;20.014;2022-12-29T10:09:17;10.80;96.90
38456;DHT22;24237;50.106;20.014;2022-12-29T10:14:32;11.10;96.70
38456;DHT22;24237;50.106;20.014;2022-12-29T10:17:31;11.50;96.10
38456;DHT22;24237;50.106;20.014;2022-12-29T10:25:54;11.50;96.20
38456;DHT22;24237;50.106;20.014;2022-12-29T10:28:35;11.50;96.40
38456;DHT22;24237;50.106;20.014;2022-12-29T10:31:09;11.60;96.30
38456;DHT22;24237;50.106;20.014;2022-12-29T10:33:40;11.70;96.00
38456;DHT22;24237;50.106;20.014;2022-12-29T10:36:16;11.60;96.30
38456;DHT22;24237;50.106;20.014;2022-12-29T10:39:05;11.60;96.30
38456;DHT22;24237;50.106;20.014;2022-12-29T10:41:41;11.80;96.30
38456;DHT22;24237;50.106;20.014;2022-12-29T10:44:14;12.00;96.10
38456;DHT22;24237;50.106;20.014;2022-12-29T10:46:41;12.30;95.80
38456;DHT22;24237;50.106;20.014;2022-12-29T10:49:16;13.00;95.30
38456;DHT22;24237;50.106;20.014;2022-12-29T10:51:44;13.90;94.60
38456;DHT22;24237;50.106;20.014;2022-12-29T10:54:21;14.70;94.00
38456;DHT22;24237;50.106;20.014;2022-12-29T10:57:13;15.30;93.30
38456;DHT22;24237;50.106;20.014;2022-12-29T10:59:41;15.60;92.50
38456;DHT22;24237;50.106;20.014;2022-12-29T11:07:12;15.40;91.90
38456;DHT22;24237;50.106;20.014;2022-12-29T11:09:41;15.20;91.90
38456;DHT22;24237;50.106;20.014;2022-12-29T11:12:28;15.30;91.70
38456;DHT22;24237;50.106;20.014;2022-12-29T11:17:48;14.80;92.10
38456;DHT22;24237;50.106;20.014;2022-12-29T11:20:36;14.80;92.10
38456;DHT22;24237;50.106;20.014;2022-12-29T11:23:04;15.00;92.00
38456;DHT22;24237;50.106;20.014;2022-12-29T11:25:30;15.20;91.90
38456;DHT22;24237;50.106;20.014;2022-12-29T11:28:01;15.00;92.10
38456;DHT22;24237;50.106;20.014;2022-12-29T11:30:30;14.80;92.20
38456;DHT22;24237;50.106;20.014;2022-12-29T11:32:56;14.90;92.30
38456;DHT22;24237;50.106;20.014;2022-12-29T11:37:58;15.00;92.30
38456;DHT22;24237;50.106;20.014;2022-12-29T11:40:25;15.30;92.10
38456;DHT22;24237;50.106;20.014;2022-12-29T11:42:53;16.10;91.50
38456;DHT22;24237;50.106;20.014;2022-12-29T11:45:22;16.50;91.00
38456;DHT22;24237;50.106;20.014;2022-12-29T11:47:52;16.00;91.40
38456;DHT22;24237;50.106;20.014;2022-12-29T11:50:22;15.70;91.70
38456;DHT22;24237;50.106;20.014;2022-12-29T11:52:50;15.60;92.00
38456;DHT22;24237;50.106;20.014;2022-12-29T11:55:24;15.70;91.80
38456;DHT22;24237;50.106;20.014;2022-12-29T11:57:52;15.70;91.90
38456;DHT22;24237;50.106;20.014;2022-12-29T12:00:21;15.70;92.00
38456;DHT22;24237;50.106;20.014;2022-12-29T12:05:27;14.90;92.80
38456;DHT22;24237;50.106;20.014;2022-12-29T12:10:42;14.70;93.10
38456;DHT22;24237;50.106;20.014;2022-12-29T12:13:25;14.60;93.20
38456;DHT22;24237;50.106;20.014;2022-12-29T12:16:06;14.50;93.40
38456;DHT22;24237;50.106;20.014;2022-12-29T12:19:23;14.60;93.40
38456;DHT22;24237;50.106;20.014;2022-12-29T12:21:50;14.30;93.90
38456;DHT22;24237;50.106;20.014;2022-12-29T12:27:20;14.50;93.90
38456;DHT22;24237;50.106;20.014;2022-12-29T12:30:03;14.50;93.90
38456;DHT22;24237;50.106;20.014;2022-12-29T12:35:16;14.30;93.90
38456;DHT22;24237;50.106;20.014;2022-12-29T12:38:07;14.30;94.10
38456;DHT22;24237;50.106;20.014;2022-12-29T12:40:56;14.60;93.90
38456;DHT22;24237;50.106;20.014;2022-12-29T12:57:10;14.70;94.00
38456;DHT22;24237;50.106;20.014;2022-12-29T13:05:29;14.90;93.90
38456;DHT22;24237;50.106;20.014;2022-12-29T13:08:15;14.80;94.00
38456;DHT22;24237;50.106;20.014;2022-12-29T13:10:54;14.70;94.00
38456;DHT22;24237;50.106;20.014;2022-12-29T13:22:25;14.40;94.60
38456;DHT22;24237;50.106;20.014;2022-12-29T13:27:40;14.30;94.80
38456;DHT22;24237;50.106;20.014;2022-12-29T13:30:12;14.20;94.90
38456;DHT22;24237;50.106;20.014;2022-12-29T13:35:56;14.30;94.90
38456;DHT22;24237;50.106;20.014;2022-12-29T13:38:31;14.70;94.60
38456;DHT22;24237;50.106;20.014;2022-12-29T13:41:02;15.20;94.20
38456;DHT22;24237;50.106;20.014;2022-12-29T13:43:32;15.70;94.00
38456;DHT22;24237;50.106;20.014;2022-12-29T13:48:50;16.20;93.20
38456;DHT22;24237;50.106;20.014;2022-12-29T13:51:17;15.80;93.50
38456;DHT22;24237;50.106;20.014;2022-12-29T13:54:09;15.50;93.80
38456;DHT22;24237;50.106;20.014;2022-12-29T13:56:50;15.20;93.90
38456;DHT22;24237;50.106;20.014;2022-12-29T14:02:00;14.70;94.50
38456;DHT22;24237;50.106;20.014;2022-12-29T14:04:29;14.80;94.40
38456;DHT22;24237;50.106;20.014;2022-12-29T14:07:04;15.00;94.30
38456;DHT22;24237;50.106;20.014;2022-12-29T14:09:45;14.80;94.70
38456;DHT22;24237;50.106;20.014;2022-12-29T14:12:35;14.60;94.80
38456;DHT22;24237;50.106;20.014;2022-12-29T14:15:14;14.30;95.00
38456;DHT22;24237;50.106;20.014;2022-12-29T14:17:40;14.30;95.00
38456;DHT22;24237;50.106;20.014;2022-12-29T14:20:18;14.20;95.10
38456;DHT22;24237;50.106;20.014;2022-12-29T14:25:59;14.00;95.40
38456;DHT22;24237;50.106;20.014;2022-12-29T14:28:27;13.80;95.60
38456;DHT22;24237;50.106;20.014;2022-12-29T14:30:58;13.90;95.60
38456;DHT22;24237;50.106;20.014;2022-12-29T14:33:26;13.80;95.70
38456;DHT22;24237;50.106;20.014;2022-12-29T14:35:53;13.80;95.70
38456;DHT22;24237;50.106;20.014;2022-12-29T14:38:22;13.80;95.80
38456;DHT22;24237;50.106;20.014;2022-12-29T14:40:48;13.80;95.80
38456;DHT22;24237;50.106;20.014;2022-12-29T14:43:23;13.70;95.90
38456;DHT22;24237;50.106;20.014;2022-12-29T14:45:56;13.60;95.90
38456;DHT22;24237;50.106;20.014;2022-12-29T14:48:46;13.60;95.90
38456;DHT22;24237;50.106;20.014;2022-12-29T14:51:20;13.60;96.00
38456;DHT22;24237;50.106;20.014;2022-12-29T14:53:50;13.50;96.00
38456;DHT22;24237;50.106;20.014;2022-12-29T14:56:18;13.70;95.80
38456;DHT22;24237;50.106;20.014;2022-12-29T14:59:01;13.80;95.90
38456;DHT22;24237;50.106;20.014;2022-12-29T15:01:42;13.50;95.90
38456;DHT22;24237;50.106;20.014;2022-12-29T15:04:25;13.70;95.80
38456;DHT22;24237;50.106;20.014;2022-12-29T15:06:53;13.60;95.90
38456;DHT22;24237;50.106;20.014;2022-12-29T15:09:32;13.60;95.90
38456;DHT22;24237;50.106;20.014;2022-12-29T15:14:51;13.40;96.10
38456;DHT22;24237;50.106;20.014;2022-12-29T15:17:29;13.60;96.00
38456;DHT22;24237;50.106;20.014;2022-12-29T15:19:58;13.60;95.90
38456;DHT22;24237;50.106;20.014;2022-12-29T15:22:24;13.60;95.90
38456;DHT22;24237;50.106;20.014;2022-12-29T15:24:52;13.40;96.10
38456;DHT22;24237;50.106;20.014;2022-12-29T15:27:24;13.60;96.10
38456;DHT22;24237;50.106;20.014;2022-12-29T15:29:58;13.50;95.90
38456;DHT22;24237;50.106;20.014;2022-12-29T15:32:27;13.30;96.10
38456;DHT22;24237;50.106;20.014;2022-12-29T15:34:55;13.20;96.20
38456;DHT22;24237;50.106;20.014;2022-12-29T15:37:22;13.20;96.40
38456;DHT22;24237;50.106;20.014;2022-12-29T15:39:48;13.20;96.30
38456;DHT22;24237;50.106;20.014;2022-12-29T15:44:48;12.80;96.70
38456;DHT22;24237;50.106;20.014;2022-12-29T15:47:25;12.60;96.90
38456;DHT22;24237;50.106;20.014;2022-12-29T15:50:15;12.30;97.30
38456;DHT22;24237;50.106;20.014;2022-12-29T15:52:44;12.10;97.60
38456;DHT22;24237;50.106;20.014;2022-12-29T15:55:41;11.90;98.10
38456;DHT22;24237;50.106;20.014;2022-12-29T15:58:17;11.80;98.30
38456;DHT22;24237;50.106;20.014;2022-12-29T16:00:50;11.70;98.40
38456;DHT22;24237;50.106;20.014;2022-12-29T16:03:16;11.70;98.50
38456;DHT22;24237;50.106;20.014;2022-12-29T16:05:51;11.80;98.50
38456;DHT22;24237;50.106;20.014;2022-12-29T16:08:28;11.80;98.70
38456;DHT22;24237;50.106;20.014;2022-12-29T16:10:55;11.80;98.50
38456;DHT22;24237;50.106;20.014;2022-12-29T16:13:33;11.70;98.70
38456;DHT22;24237;50.106;20.014;2022-12-29T16:16:02;11.70;98.70
38456;DHT22;24237;50.106;20.014;2022-12-29T16:18:35;11.50;98.90
38456;DHT22;24237;50.106;20.014;2022-12-29T16:21:03;11.60;98.70
38456;DHT22;24237;50.106;20.014;2022-12-29T16:23:30;11.50;98.90
38456;DHT22;24237;50.106;20.014;2022-12-29T16:25:57;11.60;98.70
38456;DHT22;24237;50.106;20.014;2022-12-29T16:28:28;11.50;98.70
38456;DHT22;24237;50.106;20.014;2022-12-29T16:31:05;11.40;98.80
38456;DHT22;24237;50.106;20.014;2022-12-29T16:33:38;11.50;98.70
38456;DHT22;24237;50.106;20.014;2022-12-29T16:36:28;11.50;98.60
38456;DHT22;24237;50.106;20.014;2022-12-29T16:41:41;11.60;98.40
38456;DHT22;24237;50.106;20.014;2022-12-29T16:44:16;11.60;98.40
38456;DHT22;24237;50.106;20.014;2022-12-29T16:49:36;11.80;98.20
38456;DHT22;24237;50.106;20.014;2022-12-29T16:52:12;11.90;98.10
38456;DHT22;24237;50.106;20.014;2022-12-29T16:54:39;11.90;98.10
38456;DHT22;24237;50.106;20.014;2022-12-29T16:57:07;11.60;98.20
38456;DHT22;24237;50.106;20.014;2022-12-29T16:59:35;11.50;98.60
38456;DHT22;24237;50.106;20.014;2022-12-29T17:02:14;11.60;98.30
38456;DHT22;24237;50.106;20.014;2022-12-29T17:04:40;11.40;98.50
38456;DHT22;24237;50.106;20.014;2022-12-29T17:07:26;11.20;98.70
38456;DHT22;24237;50.106;20.014;2022-12-29T17:09:52;11.10;98.90
38456;DHT22;24237;50.106;20.014;2022-12-29T17:12:24;11.10;99.00
38456;DHT22;24237;50.106;20.014;2022-12-29T17:14:58;11.30;98.80
38456;DHT22;24237;50.106;20.014;2022-12-29T17:17:33;11.50;98.50
38456;DHT22;24237;50.106;20.014;2022-12-29T17:22:46;11.50;98.70
38456;DHT22;24237;50.106;20.014;2022-12-29T17:25:18;11.30;98.80
38456;DHT22;24237;50.106;20.014;2022-12-29T17:27:53;11.30;98.90
38456;DHT22;24237;50.106;20.014;2022-12-29T17:30:22;11.30;99.10
38456;DHT22;24237;50.106;20.014;2022-12-29T17:32:52;11.30;99.00
38456;DHT22;24237;50.106;20.014;2022-12-29T17:35:20;11.50;99.00
38456;DHT22;24237;50.106;20.014;2022-12-29T17:37:47;11.20;99.10
38456;DHT22;24237;50.106;20.014;2022-12-29T17:40:17;11.00;99.50
38456;DHT22;24237;50.106;20.014;2022-12-29T17:42:45;10.80;99.40
38456;DHT22;24237;50.106;20.014;2022-12-29T17:45:20;10.80;99.70
38456;DHT22;24237;50.106;20.014;2022-12-29T17:47:46;11.10;99.50
38456;DHT22;24237;50.106;20.014;2022-12-29T17:50:14;11.30;99.40
38456;DHT22;24237;50.106;20.014;2022-12-29T17:52:41;11.10;99.50